sensor_id;sensor_type;location;lat;lon;timestamp;pressure;altitude;pressure_sealevel;temperature;humidity
56825;BME280;42705;50.326;18.772;2023-06-19T00:01:30;98392.96;;;18.19;56.90
56825;BME280;42705;50.326;18.772;2023-06-19T00:06:52;98393.52;;;18.21;57.06
56825;BME280;42705;50.326;18.772;2023-06-19T00:12:14;98394.69;;;18.20;57.17
56825;BME280;42705;50.326;18.772;2023-06-19T00:17:35;98398.16;;;18.17;57.21
56825;BME280;42705;50.326;18.772;2023-06-19T00:22:58;98394.97;;;18.11;57.26
56825;BME280;42705;50.326;18.772;2023-06-19T00:28:19;98397.31;;;18.04;57.32
56825;BME280;42705;50.326;18.772;2023-06-19T00:33:44;98400.36;;;17.94;57.36
56825;BME280;42705;50.326;18.772;2023-06-19T00:39:07;98402.96;;;17.84;57.20
56825;BME280;42705;50.326;18.772;2023-06-19T00:44:31;98403.67;;;17.77;57.21
56825;BME280;42705;50.326;18.772;2023-06-19T00:49:53;98398.52;;;17.77;57.17
56825;BME280;42705;50.326;18.772;2023-06-19T00:55:16;98400.19;;;17.76;56.97
56825;BME280;42705;50.326;18.772;2023-06-19T01:00:37;98395.08;;;17.75;56.80
56825;BME280;42705;50.326;18.772;2023-06-19T01:06:00;98392.52;;;17.70;56.84
56825;BME280;42705;50.326;18.772;2023-06-19T01:11:25;98391.21;;;17.60;57.06
56825;BME280;42705;50.326;18.772;2023-06-19T01:16:49;98389.64;;;17.50;57.26
56825;BME280;42705;50.326;18.772;2023-06-19T01:22:10;98383.83;;;17.44;57.49
56825;BME280;42705;50.326;18.772;2023-06-19T01:27:32;98376.40;;;17.40;57.75
56825;BME280;42705;50.326;18.772;2023-06-19T01:33:10;98373.25;;;17.42;57.98
56825;BME280;42705;50.326;18.772;2023-06-19T01:38:34;98377.92;;;17.47;58.20
56825;BME280;42705;50.326;18.772;2023-06-19T01:43:57;98377.48;;;17.48;58.16
56825;BME280;42705;50.326;18.772;2023-06-19T01:49:19;98378.89;;;17.42;58.06
56825;BME280;42705;50.326;18.772;2023-06-19T01:54:41;98381.92;;;17.30;58.10
56825;BME280;42705;50.326;18.772;2023-06-19T02:00:04;98388.29;;;17.21;58.27
56825;BME280;42705;50.326;18.772;2023-06-19T02:05:34;98395.98;;;17.16;58.37
56825;BME280;42705;50.326;18.772;2023-06-19T02:11:00;98399.00;;;17.16;58.85
56825;BME280;42705;50.326;18.772;2023-06-19T02:16:22;98404.24;;;17.17;58.93
56825;BME280;42705;50.326;18.772;2023-06-19T02:21:44;98406.94;;;17.11;58.88
56825;BME280;42705;50.326;18.772;2023-06-19T02:27:06;98404.77;;;17.04;58.96
56825;BME280;42705;50.326;18.772;2023-06-19T02:32:27;98405.88;;;16.98;59.13
56825;BME280;42705;50.326;18.772;2023-06-19T02:37:50;98398.56;;;16.90;59.19
56825;BME280;42705;50.326;18.772;2023-06-19T02:43:11;98398.91;;;16.83;59.48
56825;BME280;42705;50.326;18.772;2023-06-19T02:48:32;98403.30;;;16.80;59.76
56825;BME280;42705;50.326;18.772;2023-06-19T02:53:54;98405.96;;;16.82;59.88
56825;BME280;42705;50.326;18.772;2023-06-19T02:59:16;98410.98;;;16.86;59.99
56825;BME280;42705;50.326;18.772;2023-06-19T03:04:38;98411.78;;;16.86;60.03
56825;BME280;42705;50.326;18.772;2023-06-19T03:09:59;98421.64;;;16.87;59.99
56825;BME280;42705;50.326;18.772;2023-06-19T03:15:21;98427.52;;;16.86;60.20
56825;BME280;42705;50.326;18.772;2023-06-19T03:20:44;98423.23;;;16.91;60.26
56825;BME280;42705;50.326;18.772;2023-06-19T03:26:07;98422.11;;;16.98;60.26
56825;BME280;42705;50.326;18.772;2023-06-19T03:31:28;98416.29;;;17.02;60.31
56825;BME280;42705;50.326;18.772;2023-06-19T03:36:50;98417.80;;;17.05;60.27
56825;BME280;42705;50.326;18.772;2023-06-19T03:42:12;98416.23;;;17.07;60.17
56825;BME280;42705;50.326;18.772;2023-06-19T03:47:33;98416.76;;;17.09;60.29
56825;BME280;42705;50.326;18.772;2023-06-19T03:52:55;98417.66;;;17.16;60.23
56825;BME280;42705;50.326;18.772;2023-06-19T03:58:16;98422.06;;;17.27;60.28
56825;BME280;42705;50.326;18.772;2023-06-19T04:03:37;98418.98;;;17.33;60.29
56825;BME280;42705;50.326;18.772;2023-06-19T04:08:58;98421.31;;;17.39;60.10
56825;BME280;42705;50.326;18.772;2023-06-19T04:14:19;98431.02;;;17.42;60.11
56825;BME280;42705;50.326;18.772;2023-06-19T04:19:45;98427.86;;;17.43;60.15
56825;BME280;42705;50.326;18.772;2023-06-19T04:25:07;98432.14;;;17.46;60.08
56825;BME280;42705;50.326;18.772;2023-06-19T04:30:30;98426.93;;;17.55;60.27
56825;BME280;42705;50.326;18.772;2023-06-19T04:35:51;98422.91;;;17.62;60.42
56825;BME280;42705;50.326;18.772;2023-06-19T04:41:12;98420.91;;;17.70;60.58
56825;BME280;42705;50.326;18.772;2023-06-19T04:46:35;98424.07;;;17.79;60.61
56825;BME280;42705;50.326;18.772;2023-06-19T04:51:57;98428.09;;;17.87;60.56
56825;BME280;42705;50.326;18.772;2023-06-19T04:57:18;98424.71;;;17.86;60.41
56825;BME280;42705;50.326;18.772;2023-06-19T05:02:39;98428.12;;;17.85;60.22
56825;BME280;42705;50.326;18.772;2023-06-19T05:08:04;98433.84;;;17.96;60.43
56825;BME280;42705;50.326;18.772;2023-06-19T05:13:25;98436.64;;;18.10;60.45
56825;BME280;42705;50.326;18.772;2023-06-19T05:18:46;98435.54;;;18.19;60.11
56825;BME280;42705;50.326;18.772;2023-06-19T05:24:08;98435.84;;;18.25;59.94
56825;BME280;42705;50.326;18.772;2023-06-19T05:29:29;98440.88;;;18.32;59.94
56825;BME280;42705;50.326;18.772;2023-06-19T05:34:51;98443.40;;;18.37;59.92
56825;BME280;42705;50.326;18.772;2023-06-19T05:40:13;98443.93;;;18.41;59.45
56825;BME280;42705;50.326;18.772;2023-06-19T05:45:34;98451.84;;;18.43;59.23
56825;BME280;42705;50.326;18.772;2023-06-19T05:50:56;98463.86;;;18.47;59.11
56825;BME280;42705;50.326;18.772;2023-06-19T05:56:17;98454.54;;;18.56;59.02
56825;BME280;42705;50.326;18.772;2023-06-19T06:01:38;98453.67;;;18.71;59.13
56825;BME280;42705;50.326;18.772;2023-06-19T06:07:00;98455.52;;;18.90;59.02
56825;BME280;42705;50.326;18.772;2023-06-19T06:12:21;98457.63;;;19.08;58.97
56825;BME280;42705;50.326;18.772;2023-06-19T06:17:42;98461.02;;;19.26;58.72
56825;BME280;42705;50.326;18.772;2023-06-19T06:23:04;98470.48;;;19.41;58.50
56825;BME280;42705;50.326;18.772;2023-06-19T06:28:25;98469.83;;;19.55;58.46
56825;BME280;42705;50.326;18.772;2023-06-19T06:33:47;98469.27;;;19.68;57.84
56825;BME280;42705;50.326;18.772;2023-06-19T06:39:09;98472.20;;;19.79;57.31
56825;BME280;42705;50.326;18.772;2023-06-19T06:44:31;98475.73;;;19.87;56.96
56825;BME280;42705;50.326;18.772;2023-06-19T06:49:52;98478.19;;;19.97;56.70
56825;BME280;42705;50.326;18.772;2023-06-19T06:55:13;98483.77;;;20.06;56.57
56825;BME280;42705;50.326;18.772;2023-06-19T07:00:35;98487.71;;;20.15;56.31
56825;BME280;42705;50.326;18.772;2023-06-19T07:05:56;98492.41;;;20.27;56.15
56825;BME280;42705;50.326;18.772;2023-06-19T07:11:17;98500.52;;;20.37;55.69
56825;BME280;42705;50.326;18.772;2023-06-19T07:16:38;98498.11;;;20.48;55.14
56825;BME280;42705;50.326;18.772;2023-06-19T07:21:59;98497.59;;;20.61;54.68
56825;BME280;42705;50.326;18.772;2023-06-19T07:27:21;98500.66;;;20.72;54.21
56825;BME280;42705;50.326;18.772;2023-06-19T07:32:43;98498.23;;;20.84;53.85
56825;BME280;42705;50.326;18.772;2023-06-19T07:38:04;98503.88;;;20.96;53.55
56825;BME280;42705;50.326;18.772;2023-06-19T07:43:25;98511.08;;;21.09;53.48
56825;BME280;42705;50.326;18.772;2023-06-19T07:48:46;98514.20;;;21.20;53.03
56825;BME280;42705;50.326;18.772;2023-06-19T07:54:07;98510.83;;;21.31;52.78
56825;BME280;42705;50.326;18.772;2023-06-19T07:59:28;98508.38;;;21.41;52.42
56825;BME280;42705;50.326;18.772;2023-06-19T08:04:50;98514.34;;;21.52;52.14
56825;BME280;42705;50.326;18.772;2023-06-19T08:10:11;98509.02;;;21.65;51.73
56825;BME280;42705;50.326;18.772;2023-06-19T08:15:32;98508.93;;;21.82;51.06
56825;BME280;42705;50.326;18.772;2023-06-19T08:20:53;98501.20;;;22.03;50.70
56825;BME280;42705;50.326;18.772;2023-06-19T08:26:14;98502.48;;;22.24;50.55
56825;BME280;42705;50.326;18.772;2023-06-19T08:31:35;98503.15;;;22.39;49.93
56825;BME280;42705;50.326;18.772;2023-06-19T08:36:57;98506.77;;;22.53;49.05
56825;BME280;42705;50.326;18.772;2023-06-19T08:42:18;98508.54;;;22.70;48.64
56825;BME280;42705;50.326;18.772;2023-06-19T08:47:39;98505.09;;;22.90;48.21
56825;BME280;42705;50.326;18.772;2023-06-19T08:53:00;98498.73;;;23.17;47.62
56825;BME280;42705;50.326;18.772;2023-06-19T08:58:23;98494.46;;;23.44;47.22
56825;BME280;42705;50.326;18.772;2023-06-19T09:03:46;98494.20;;;23.71;47.03
56825;BME280;42705;50.326;18.772;2023-06-19T09:09:07;98484.67;;;23.95;46.83
56825;BME280;42705;50.326;18.772;2023-06-19T09:14:38;98479.11;;;24.15;46.57
56825;BME280;42705;50.326;18.772;2023-06-19T09:20:00;98479.24;;;24.28;45.41
56825;BME280;42705;50.326;18.772;2023-06-19T09:25:21;98478.94;;;24.40;44.41
56825;BME280;42705;50.326;18.772;2023-06-19T09:30:57;98482.17;;;24.52;43.66
56825;BME280;42705;50.326;18.772;2023-06-19T09:36:19;98476.95;;;24.62;43.06
56825;BME280;42705;50.326;18.772;2023-06-19T09:41:42;98475.54;;;24.70;42.80
56825;BME280;42705;50.326;18.772;2023-06-19T09:47:17;98470.45;;;24.80;43.30
56825;BME280;42705;50.326;18.772;2023-06-19T09:52:43;98470.96;;;24.89;43.19
56825;BME280;42705;50.326;18.772;2023-06-19T09:58:06;98466.52;;;24.99;42.78
56825;BME280;42705;50.326;18.772;2023-06-19T10:03:35;98464.96;;;25.08;42.43
56825;BME280;42705;50.326;18.772;2023-06-19T10:09:06;98469.47;;;25.17;42.52
56825;BME280;42705;50.326;18.772;2023-06-19T10:14:27;98462.42;;;25.15;42.22
56825;BME280;42705;50.326;18.772;2023-06-19T10:19:52;98467.61;;;25.12;42.46
56825;BME280;42705;50.326;18.772;2023-06-19T10:25:20;98469.02;;;25.10;41.64
56825;BME280;42705;50.326;18.772;2023-06-19T10:30:42;98458.56;;;25.03;41.03
56825;BME280;42705;50.326;18.772;2023-06-19T10:36:16;98459.43;;;24.96;41.13
56825;BME280;42705;50.326;18.772;2023-06-19T10:41:40;98458.44;;;24.89;40.84
56825;BME280;42705;50.326;18.772;2023-06-19T10:47:01;98457.20;;;24.89;40.09
56825;BME280;42705;50.326;18.772;2023-06-19T10:52:23;98458.77;;;24.90;39.18
56825;BME280;42705;50.326;18.772;2023-06-19T10:57:45;98458.05;;;24.94;39.36
56825;BME280;42705;50.326;18.772;2023-06-19T11:03:06;98456.07;;;25.04;39.49
56825;BME280;42705;50.326;18.772;2023-06-19T11:08:28;98456.46;;;25.15;38.73
56825;BME280;42705;50.326;18.772;2023-06-19T11:13:49;98461.03;;;25.31;38.30
56825;BME280;42705;50.326;18.772;2023-06-19T11:19:16;98459.79;;;25.53;37.89
56825;BME280;42705;50.326;18.772;2023-06-19T11:24:43;98456.27;;;25.74;37.25
56825;BME280;42705;50.326;18.772;2023-06-19T11:30:05;98451.27;;;25.97;37.45
56825;BME280;42705;50.326;18.772;2023-06-19T11:35:34;98450.06;;;26.19;37.02
56825;BME280;42705;50.326;18.772;2023-06-19T11:40:57;98441.20;;;26.38;36.97
56825;BME280;42705;50.326;18.772;2023-06-19T11:46:18;98442.48;;;26.51;36.70
56825;BME280;42705;50.326;18.772;2023-06-19T11:51:40;98437.09;;;26.61;36.37
56825;BME280;42705;50.326;18.772;2023-06-19T11:57:02;98428.61;;;26.72;36.40
56825;BME280;42705;50.326;18.772;2023-06-19T12:02:23;98430.02;;;26.85;36.15
56825;BME280;42705;50.326;18.772;2023-06-19T12:07:45;98431.16;;;26.92;34.77
56825;BME280;42705;50.326;18.772;2023-06-19T12:13:06;98428.85;;;27.04;34.29
56825;BME280;42705;50.326;18.772;2023-06-19T12:18:27;98421.85;;;27.20;33.97
56825;BME280;42705;50.326;18.772;2023-06-19T12:23:48;98418.04;;;27.34;33.67
56825;BME280;42705;50.326;18.772;2023-06-19T12:29:09;98416.46;;;27.43;33.55
56825;BME280;42705;50.326;18.772;2023-06-19T12:34:30;98417.65;;;27.60;33.27
56825;BME280;42705;50.326;18.772;2023-06-19T12:39:52;98419.94;;;27.79;32.92
56825;BME280;42705;50.326;18.772;2023-06-19T12:45:13;98413.73;;;27.96;32.65
56825;BME280;42705;50.326;18.772;2023-06-19T12:50:34;98404.86;;;28.12;32.53
56825;BME280;42705;50.326;18.772;2023-06-19T12:56:00;98401.12;;;28.28;32.00
56825;BME280;42705;50.326;18.772;2023-06-19T13:01:22;98397.20;;;28.45;31.55
56825;BME280;42705;50.326;18.772;2023-06-19T13:06:44;98402.64;;;28.69;31.48
56825;BME280;42705;50.326;18.772;2023-06-19T13:12:05;98402.09;;;29.04;30.88
56825;BME280;42705;50.326;18.772;2023-06-19T13:17:27;98392.91;;;29.42;30.61
56825;BME280;42705;50.326;18.772;2023-06-19T13:22:48;98394.48;;;29.94;30.44
56825;BME280;42705;50.326;18.772;2023-06-19T13:28:09;98391.39;;;30.74;29.53
56825;BME280;42705;50.326;18.772;2023-06-19T13:33:30;98381.40;;;31.91;28.66
56825;BME280;42705;50.326;18.772;2023-06-19T13:38:51;98380.36;;;34.24;27.32
56825;BME280;42705;50.326;18.772;2023-06-19T13:44:13;98371.23;;;36.35;24.87
56825;BME280;42705;50.326;18.772;2023-06-19T13:49:34;98371.70;;;38.59;23.51
56825;BME280;42705;50.326;18.772;2023-06-19T13:54:55;98364.16;;;40.51;21.89
56825;BME280;42705;50.326;18.772;2023-06-19T14:00:16;98363.52;;;42.32;20.12
56825;BME280;42705;50.326;18.772;2023-06-19T14:05:38;98364.05;;;44.02;18.49
56825;BME280;42705;50.326;18.772;2023-06-19T14:10:59;98366.30;;;45.33;17.19
56825;BME280;42705;50.326;18.772;2023-06-19T14:16:21;98363.71;;;46.36;16.54
56825;BME280;42705;50.326;18.772;2023-06-19T14:21:42;98366.14;;;47.28;15.80
56825;BME280;42705;50.326;18.772;2023-06-19T14:27:03;98355.02;;;48.22;15.36
56825;BME280;42705;50.326;18.772;2023-06-19T14:32:24;98352.86;;;48.99;14.72
56825;BME280;42705;50.326;18.772;2023-06-19T14:37:46;98351.95;;;49.63;14.08
56825;BME280;42705;50.326;18.772;2023-06-19T14:43:07;98349.52;;;50.04;13.42
56825;BME280;42705;50.326;18.772;2023-06-19T14:48:30;98348.02;;;50.14;12.86
56825;BME280;42705;50.326;18.772;2023-06-19T14:53:51;98345.73;;;50.43;12.68
56825;BME280;42705;50.326;18.772;2023-06-19T14:59:13;98343.52;;;50.63;12.44
56825;BME280;42705;50.326;18.772;2023-06-19T15:04:35;98340.43;;;50.08;12.05
56825;BME280;42705;50.326;18.772;2023-06-19T15:09:56;98342.06;;;48.90;12.21
56825;BME280;42705;50.326;18.772;2023-06-19T15:15:18;98345.59;;;48.15;12.52
56825;BME280;42705;50.326;18.772;2023-06-19T15:20:39;98344.71;;;48.26;12.63
56825;BME280;42705;50.326;18.772;2023-06-19T15:26:00;98336.52;;;48.62;12.75
56825;BME280;42705;50.326;18.772;2023-06-19T15:31:22;98330.69;;;48.86;12.72
56825;BME280;42705;50.326;18.772;2023-06-19T15:36:44;98330.48;;;48.60;12.18
56825;BME280;42705;50.326;18.772;2023-06-19T15:42:05;98327.89;;;48.29;12.33
56825;BME280;42705;50.326;18.772;2023-06-19T15:47:26;98329.25;;;48.25;12.17
56825;BME280;42705;50.326;18.772;2023-06-19T15:52:47;98327.02;;;47.97;12.52
56825;BME280;42705;50.326;18.772;2023-06-19T15:58:08;98327.63;;;47.80;12.48
56825;BME280;42705;50.326;18.772;2023-06-19T16:03:30;98327.09;;;47.10;12.15
56825;BME280;42705;50.326;18.772;2023-06-19T16:08:53;98323.31;;;46.45;12.27
56825;BME280;42705;50.326;18.772;2023-06-19T16:14:17;98317.10;;;45.93;12.21
56825;BME280;42705;50.326;18.772;2023-06-19T16:19:38;98320.33;;;45.67;12.84
56825;BME280;42705;50.326;18.772;2023-06-19T16:25:00;98319.17;;;45.16;12.62
56825;BME280;42705;50.326;18.772;2023-06-19T16:30:22;98318.84;;;44.57;12.93
56825;BME280;42705;50.326;18.772;2023-06-19T16:35:43;98318.89;;;43.97;13.06
56825;BME280;42705;50.326;18.772;2023-06-19T16:41:04;98320.61;;;42.96;13.26
56825;BME280;42705;50.326;18.772;2023-06-19T16:46:26;98317.17;;;41.85;13.74
56825;BME280;42705;50.326;18.772;2023-06-19T16:51:47;98320.67;;;40.79;14.27
56825;BME280;42705;50.326;18.772;2023-06-19T16:57:08;98324.75;;;39.72;14.83
56825;BME280;42705;50.326;18.772;2023-06-19T17:02:30;98323.64;;;38.78;15.59
56825;BME280;42705;50.326;18.772;2023-06-19T17:07:51;98323.18;;;38.01;15.89
56825;BME280;42705;50.326;18.772;2023-06-19T17:13:12;98323.86;;;37.50;16.40
56825;BME280;42705;50.326;18.772;2023-06-19T17:18:33;98320.85;;;37.08;16.65
56825;BME280;42705;50.326;18.772;2023-06-19T17:23:54;98321.81;;;36.59;17.01
56825;BME280;42705;50.326;18.772;2023-06-19T17:29:15;98318.51;;;36.03;17.64
56825;BME280;42705;50.326;18.772;2023-06-19T17:34:37;98312.98;;;35.59;18.26
56825;BME280;42705;50.326;18.772;2023-06-19T17:39:58;98319.80;;;35.11;18.64
56825;BME280;42705;50.326;18.772;2023-06-19T17:45:20;98328.31;;;34.42;19.32
56825;BME280;42705;50.326;18.772;2023-06-19T17:50:41;98329.49;;;33.72;19.80
56825;BME280;42705;50.326;18.772;2023-06-19T17:56:03;98329.83;;;33.00;20.38
56825;BME280;42705;50.326;18.772;2023-06-19T18:01:25;98329.81;;;32.29;21.12
56825;BME280;42705;50.326;18.772;2023-06-19T18:06:47;98329.56;;;31.61;21.62
56825;BME280;42705;50.326;18.772;2023-06-19T18:12:09;98328.89;;;30.92;22.50
56825;BME280;42705;50.326;18.772;2023-06-19T18:17:30;98326.34;;;30.40;23.14
56825;BME280;42705;50.326;18.772;2023-06-19T18:22:51;98326.33;;;30.06;23.52
56825;BME280;42705;50.326;18.772;2023-06-19T18:28:12;98325.85;;;29.69;23.82
56825;BME280;42705;50.326;18.772;2023-06-19T18:33:33;98326.59;;;29.33;24.36
56825;BME280;42705;50.326;18.772;2023-06-19T18:38:54;98325.94;;;28.99;24.84
56825;BME280;42705;50.326;18.772;2023-06-19T18:44:16;98326.20;;;28.66;25.26
56825;BME280;42705;50.326;18.772;2023-06-19T18:49:37;98332.21;;;28.33;25.98
56825;BME280;42705;50.326;18.772;2023-06-19T18:54:58;98336.72;;;28.02;26.35
56825;BME280;42705;50.326;18.772;2023-06-19T19:00:19;98342.36;;;27.75;26.64
56825;BME280;42705;50.326;18.772;2023-06-19T19:05:41;98345.39;;;27.50;27.23
56825;BME280;42705;50.326;18.772;2023-06-19T19:11:02;98352.72;;;27.26;27.95
56825;BME280;42705;50.326;18.772;2023-06-19T19:16:23;98360.80;;;27.03;28.33
56825;BME280;42705;50.326;18.772;2023-06-19T19:21:45;98374.29;;;26.80;29.07
56825;BME280;42705;50.326;18.772;2023-06-19T19:27:07;98386.45;;;26.58;29.64
56825;BME280;42705;50.326;18.772;2023-06-19T19:32:28;98395.16;;;26.33;30.34
56825;BME280;42705;50.326;18.772;2023-06-19T19:37:49;98394.05;;;26.12;30.91
56825;BME280;42705;50.326;18.772;2023-06-19T19:43:11;98400.90;;;25.92;31.82
56825;BME280;42705;50.326;18.772;2023-06-19T19:48:34;98409.06;;;25.70;32.92
56825;BME280;42705;50.326;18.772;2023-06-19T19:53:55;98408.45;;;25.50;33.56
56825;BME280;42705;50.326;18.772;2023-06-19T19:59:17;98408.80;;;25.30;34.63
56825;BME280;42705;50.326;18.772;2023-06-19T20:04:38;98411.66;;;25.10;35.11
56825;BME280;42705;50.326;18.772;2023-06-19T20:10:00;98410.45;;;24.90;35.64
56825;BME280;42705;50.326;18.772;2023-06-19T20:15:21;98412.39;;;24.72;36.09
56825;BME280;42705;50.326;18.772;2023-06-19T20:20:43;98410.64;;;24.56;36.95
56825;BME280;42705;50.326;18.772;2023-06-19T20:26:04;98410.55;;;24.41;37.22
56825;BME280;42705;50.326;18.772;2023-06-19T20:31:25;98408.27;;;24.26;37.89
56825;BME280;42705;50.326;18.772;2023-06-19T20:36:47;98413.33;;;24.09;38.70
56825;BME280;42705;50.326;18.772;2023-06-19T20:42:08;98418.50;;;23.95;39.42
56825;BME280;42705;50.326;18.772;2023-06-19T20:47:30;98423.23;;;23.79;39.78
56825;BME280;42705;50.326;18.772;2023-06-19T20:52:51;98432.66;;;23.64;39.82
56825;BME280;42705;50.326;18.772;2023-06-19T20:58:12;98433.62;;;23.50;39.81
56825;BME280;42705;50.326;18.772;2023-06-19T21:03:34;98443.33;;;23.37;40.01
56825;BME280;42705;50.326;18.772;2023-06-19T21:08:55;98443.77;;;23.26;40.09
56825;BME280;42705;50.326;18.772;2023-06-19T21:14:17;98443.73;;;23.16;40.24
56825;BME280;42705;50.326;18.772;2023-06-19T21:19:39;98440.82;;;23.03;39.84
56825;BME280;42705;50.326;18.772;2023-06-19T21:25:00;98442.73;;;22.92;39.90
56825;BME280;42705;50.326;18.772;2023-06-19T21:30:21;98442.70;;;22.77;40.54
56825;BME280;42705;50.326;18.772;2023-06-19T21:35:43;98437.49;;;22.55;41.36
56825;BME280;42705;50.326;18.772;2023-06-19T21:41:04;98446.85;;;22.41;41.97
56825;BME280;42705;50.326;18.772;2023-06-19T21:46:25;98448.39;;;22.33;42.46
56825;BME280;42705;50.326;18.772;2023-06-19T21:51:47;98454.08;;;22.24;42.87
56825;BME280;42705;50.326;18.772;2023-06-19T21:57:08;98454.02;;;22.17;43.06
56825;BME280;42705;50.326;18.772;2023-06-19T22:02:30;98452.76;;;22.13;43.17
56825;BME280;42705;50.326;18.772;2023-06-19T22:07:51;98446.09;;;22.09;43.06
56825;BME280;42705;50.326;18.772;2023-06-19T22:13:12;98440.89;;;22.07;43.62
56825;BME280;42705;50.326;18.772;2023-06-19T22:18:34;98442.60;;;22.04;43.96
56825;BME280;42705;50.326;18.772;2023-06-19T22:23:55;98449.28;;;21.99;44.12
56825;BME280;42705;50.326;18.772;2023-06-19T22:29:16;98451.39;;;21.95;44.57
56825;BME280;42705;50.326;18.772;2023-06-19T22:34:38;98450.87;;;21.93;44.91
56825;BME280;42705;50.326;18.772;2023-06-19T22:39:59;98448.83;;;21.90;45.25
56825;BME280;42705;50.326;18.772;2023-06-19T22:45:20;98453.52;;;21.87;45.58
56825;BME280;42705;50.326;18.772;2023-06-19T22:50:41;98449.46;;;21.81;45.82
56825;BME280;42705;50.326;18.772;2023-06-19T22:56:02;98444.97;;;21.78;46.23
56825;BME280;42705;50.326;18.772;2023-06-19T23:01:24;98446.66;;;21.74;46.51
56825;BME280;42705;50.326;18.772;2023-06-19T23:06:51;98437.98;;;21.72;46.66
56825;BME280;42705;50.326;18.772;2023-06-19T23:12:13;98435.02;;;21.69;46.90
56825;BME280;42705;50.326;18.772;2023-06-19T23:17:34;98436.54;;;21.67;47.02
56825;BME280;42705;50.326;18.772;2023-06-19T23:22:55;98438.55;;;21.64;47.27
56825;BME280;42705;50.326;18.772;2023-06-19T23:28:16;98439.73;;;21.59;47.57
56825;BME280;42705;50.326;18.772;2023-06-19T23:33:38;98443.74;;;21.53;47.86
56825;BME280;42705;50.326;18.772;2023-06-19T23:38:59;98441.56;;;21.44;47.91
56825;BME280;42705;50.326;18.772;2023-06-19T23:44:21;98443.89;;;21.36;48.15
56825;BME280;42705;50.326;18.772;2023-06-19T23:49:43;98443.67;;;21.28;48.08
56825;BME280;42705;50.326;18.772;2023-06-19T23:55:04;98444.02;;;21.21;48.18
